sensor_id;sensor_type;location;lat;lon;timestamp;P1;durP1;ratioP1;P2;durP2;ratioP2
85682;SDS011;76253;52.232;5.176;2024-03-17T00:00:29;6.75;;;3.47;;
85682;SDS011;76253;52.232;5.176;2024-03-17T00:02:55;7.80;;;4.00;;
85682;SDS011;76253;52.232;5.176;2024-03-17T00:05:20;7.13;;;3.53;;
85682;SDS011;76253;52.232;5.176;2024-03-17T00:07:47;9.52;;;4.18;;
85682;SDS011;76253;52.232;5.176;2024-03-17T00:10:13;8.65;;;4.07;;
85682;SDS011;76253;52.232;5.176;2024-03-17T00:12:40;9.55;;;4.35;;
85682;SDS011;76253;52.232;5.176;2024-03-17T00:15:06;8.50;;;3.47;;
85682;SDS011;76253;52.232;5.176;2024-03-17T00:17:32;6.38;;;3.88;;
85682;SDS011;76253;52.232;5.176;2024-03-17T00:20:02;11.45;;;4.28;;
85682;SDS011;76253;52.232;5.176;2024-03-17T00:22:33;8.88;;;4.35;;
85682;SDS011;76253;52.232;5.176;2024-03-17T00:25:03;11.93;;;4.30;;
85682;SDS011;76253;52.232;5.176;2024-03-17T00:27:28;8.60;;;4.20;;
85682;SDS011;76253;52.232;5.176;2024-03-17T00:29:54;8.90;;;4.22;;
85682;SDS011;76253;52.232;5.176;2024-03-17T00:32:19;9.00;;;3.72;;
85682;SDS011;76253;52.232;5.176;2024-03-17T00:34:44;8.07;;;3.83;;
85682;SDS011;76253;52.232;5.176;2024-03-17T00:37:11;10.30;;;3.90;;
85682;SDS011;76253;52.232;5.176;2024-03-17T00:39:37;9.80;;;4.40;;
85682;SDS011;76253;52.232;5.176;2024-03-17T00:42:02;14.07;;;5.63;;
85682;SDS011;76253;52.232;5.176;2024-03-17T00:44:27;7.38;;;3.85;;
85682;SDS011;76253;52.232;5.176;2024-03-17T00:46:53;10.90;;;3.93;;
85682;SDS011;76253;52.232;5.176;2024-03-17T00:49:19;12.93;;;4.72;;
85682;SDS011;76253;52.232;5.176;2024-03-17T00:51:45;11.27;;;4.28;;
85682;SDS011;76253;52.232;5.176;2024-03-17T00:54:13;8.93;;;4.40;;
85682;SDS011;76253;52.232;5.176;2024-03-17T00:56:38;13.63;;;4.77;;
85682;SDS011;76253;52.232;5.176;2024-03-17T00:59:03;10.03;;;4.83;;
85682;SDS011;76253;52.232;5.176;2024-03-17T01:01:29;11.73;;;5.30;;
85682;SDS011;76253;52.232;5.176;2024-03-17T01:03:54;13.05;;;4.65;;
85682;SDS011;76253;52.232;5.176;2024-03-17T01:06:20;11.32;;;3.53;;
85682;SDS011;76253;52.232;5.176;2024-03-17T01:08:45;9.77;;;3.60;;
85682;SDS011;76253;52.232;5.176;2024-03-17T01:11:15;10.80;;;3.58;;
85682;SDS011;76253;52.232;5.176;2024-03-17T01:13:43;9.75;;;3.60;;
85682;SDS011;76253;52.232;5.176;2024-03-17T01:16:09;7.30;;;3.05;;
85682;SDS011;76253;52.232;5.176;2024-03-17T01:18:34;8.95;;;3.15;;
85682;SDS011;76253;52.232;5.176;2024-03-17T01:21:03;6.15;;;3.38;;
85682;SDS011;76253;52.232;5.176;2024-03-17T01:23:28;8.20;;;3.08;;
85682;SDS011;76253;52.232;5.176;2024-03-17T01:25:53;12.20;;;3.90;;
85682;SDS011;76253;52.232;5.176;2024-03-17T01:28:19;10.80;;;3.45;;
85682;SDS011;76253;52.232;5.176;2024-03-17T01:30:45;5.57;;;2.77;;
85682;SDS011;76253;52.232;5.176;2024-03-17T01:33:12;9.25;;;3.42;;
85682;SDS011;76253;52.232;5.176;2024-03-17T01:35:37;7.55;;;3.00;;
85682;SDS011;76253;52.232;5.176;2024-03-17T01:38:03;6.18;;;2.70;;
85682;SDS011;76253;52.232;5.176;2024-03-17T01:40:29;6.88;;;3.33;;
85682;SDS011;76253;52.232;5.176;2024-03-17T01:42:54;6.13;;;3.30;;
85682;SDS011;76253;52.232;5.176;2024-03-17T01:45:20;7.97;;;3.27;;
85682;SDS011;76253;52.232;5.176;2024-03-17T01:47:51;5.82;;;2.95;;
85682;SDS011;76253;52.232;5.176;2024-03-17T01:50:28;6.72;;;2.83;;
85682;SDS011;76253;52.232;5.176;2024-03-17T01:52:58;5.68;;;3.17;;
85682;SDS011;76253;52.232;5.176;2024-03-17T01:55:26;9.27;;;3.38;;
85682;SDS011;76253;52.232;5.176;2024-03-17T01:57:54;11.25;;;3.83;;
85682;SDS011;76253;52.232;5.176;2024-03-17T02:00:21;8.60;;;3.78;;
85682;SDS011;76253;52.232;5.176;2024-03-17T02:02:48;8.05;;;3.55;;
85682;SDS011;76253;52.232;5.176;2024-03-17T02:05:13;8.55;;;3.70;;
85682;SDS011;76253;52.232;5.176;2024-03-17T02:07:39;5.30;;;3.13;;
85682;SDS011;76253;52.232;5.176;2024-03-17T02:10:05;12.18;;;4.50;;
85682;SDS011;76253;52.232;5.176;2024-03-17T02:12:32;7.82;;;3.58;;
85682;SDS011;76253;52.232;5.176;2024-03-17T02:14:58;11.35;;;4.57;;
85682;SDS011;76253;52.232;5.176;2024-03-17T02:17:29;11.65;;;4.32;;
85682;SDS011;76253;52.232;5.176;2024-03-17T02:19:57;10.45;;;4.18;;
85682;SDS011;76253;52.232;5.176;2024-03-17T02:22:22;8.70;;;4.20;;
85682;SDS011;76253;52.232;5.176;2024-03-17T02:24:48;7.83;;;3.97;;
85682;SDS011;76253;52.232;5.176;2024-03-17T02:27:15;11.43;;;3.70;;
85682;SDS011;76253;52.232;5.176;2024-03-17T02:29:40;9.00;;;3.70;;
85682;SDS011;76253;52.232;5.176;2024-03-17T02:32:10;10.23;;;4.07;;
85682;SDS011;76253;52.232;5.176;2024-03-17T02:34:36;11.05;;;3.70;;
85682;SDS011;76253;52.232;5.176;2024-03-17T02:37:03;10.95;;;4.20;;
85682;SDS011;76253;52.232;5.176;2024-03-17T02:39:32;14.20;;;4.28;;
85682;SDS011;76253;52.232;5.176;2024-03-17T02:42:02;11.48;;;4.43;;
85682;SDS011;76253;52.232;5.176;2024-03-17T02:46:57;7.80;;;3.60;;
85682;SDS011;76253;52.232;5.176;2024-03-17T02:49:24;6.97;;;3.88;;
85682;SDS011;76253;52.232;5.176;2024-03-17T02:51:50;13.10;;;4.15;;
85682;SDS011;76253;52.232;5.176;2024-03-17T02:54:16;9.00;;;3.78;;
85682;SDS011;76253;52.232;5.176;2024-03-17T02:56:41;10.13;;;3.92;;
85682;SDS011;76253;52.232;5.176;2024-03-17T02:59:07;8.43;;;3.70;;
85682;SDS011;76253;52.232;5.176;2024-03-17T03:01:32;9.98;;;4.38;;
85682;SDS011;76253;52.232;5.176;2024-03-17T03:03:58;10.70;;;3.95;;
85682;SDS011;76253;52.232;5.176;2024-03-17T03:06:23;13.93;;;4.13;;
85682;SDS011;76253;52.232;5.176;2024-03-17T03:08:50;10.20;;;4.28;;
85682;SDS011;76253;52.232;5.176;2024-03-17T03:11:16;8.48;;;4.63;;
85682;SDS011;76253;52.232;5.176;2024-03-17T03:13:42;12.05;;;4.40;;
85682;SDS011;76253;52.232;5.176;2024-03-17T03:16:10;9.90;;;4.05;;
85682;SDS011;76253;52.232;5.176;2024-03-17T03:18:37;8.40;;;4.85;;
85682;SDS011;76253;52.232;5.176;2024-03-17T03:21:06;9.52;;;4.72;;
85682;SDS011;76253;52.232;5.176;2024-03-17T03:23:34;9.02;;;4.50;;
85682;SDS011;76253;52.232;5.176;2024-03-17T03:26:02;10.50;;;4.32;;
85682;SDS011;76253;52.232;5.176;2024-03-17T03:28:29;9.13;;;4.55;;
85682;SDS011;76253;52.232;5.176;2024-03-17T03:30:55;9.32;;;4.38;;
85682;SDS011;76253;52.232;5.176;2024-03-17T03:33:21;7.40;;;4.32;;
85682;SDS011;76253;52.232;5.176;2024-03-17T03:35:47;9.77;;;4.28;;
85682;SDS011;76253;52.232;5.176;2024-03-17T03:38:13;11.50;;;4.65;;
85682;SDS011;76253;52.232;5.176;2024-03-17T03:43:04;8.13;;;4.03;;
85682;SDS011;76253;52.232;5.176;2024-03-17T03:45:30;9.40;;;5.32;;
85682;SDS011;76253;52.232;5.176;2024-03-17T03:47:55;8.70;;;4.80;;
85682;SDS011;76253;52.232;5.176;2024-03-17T03:50:21;7.00;;;3.83;;
85682;SDS011;76253;52.232;5.176;2024-03-17T03:52:47;7.55;;;4.05;;
85682;SDS011;76253;52.232;5.176;2024-03-17T03:55:12;10.13;;;5.07;;
85682;SDS011;76253;52.232;5.176;2024-03-17T03:57:43;11.20;;;4.10;;
85682;SDS011;76253;52.232;5.176;2024-03-17T04:00:14;9.90;;;4.55;;
85682;SDS011;76253;52.232;5.176;2024-03-17T04:02:43;9.80;;;4.63;;
85682;SDS011;76253;52.232;5.176;2024-03-17T04:05:10;11.75;;;5.18;;
85682;SDS011;76253;52.232;5.176;2024-03-17T04:07:36;11.07;;;5.38;;
85682;SDS011;76253;52.232;5.176;2024-03-17T04:10:02;10.82;;;4.88;;
85682;SDS011;76253;52.232;5.176;2024-03-17T04:12:28;10.68;;;5.07;;
85682;SDS011;76253;52.232;5.176;2024-03-17T04:14:56;10.38;;;5.43;;
85682;SDS011;76253;52.232;5.176;2024-03-17T04:17:22;12.30;;;4.88;;
85682;SDS011;76253;52.232;5.176;2024-03-17T04:19:48;11.23;;;5.65;;
85682;SDS011;76253;52.232;5.176;2024-03-17T04:22:17;9.05;;;4.90;;
85682;SDS011;76253;52.232;5.176;2024-03-17T04:24:44;13.02;;;5.10;;
85682;SDS011;76253;52.232;5.176;2024-03-17T04:27:10;9.50;;;5.20;;
85682;SDS011;76253;52.232;5.176;2024-03-17T04:29:36;12.25;;;6.35;;
85682;SDS011;76253;52.232;5.176;2024-03-17T04:32:02;11.93;;;4.85;;
85682;SDS011;76253;52.232;5.176;2024-03-17T04:34:30;8.82;;;5.25;;
85682;SDS011;76253;52.232;5.176;2024-03-17T04:36:56;9.90;;;5.72;;
85682;SDS011;76253;52.232;5.176;2024-03-17T04:39:22;9.82;;;5.18;;
85682;SDS011;76253;52.232;5.176;2024-03-17T04:41:48;11.00;;;6.15;;
85682;SDS011;76253;52.232;5.176;2024-03-17T04:44:14;10.85;;;5.20;;
85682;SDS011;76253;52.232;5.176;2024-03-17T04:46:40;8.68;;;5.20;;
85682;SDS011;76253;52.232;5.176;2024-03-17T04:49:05;14.57;;;6.40;;
85682;SDS011;76253;52.232;5.176;2024-03-17T04:51:31;13.10;;;5.95;;
85682;SDS011;76253;52.232;5.176;2024-03-17T04:53:58;12.32;;;5.90;;
85682;SDS011;76253;52.232;5.176;2024-03-17T04:56:24;10.32;;;5.90;;
85682;SDS011;76253;52.232;5.176;2024-03-17T04:58:51;10.77;;;5.72;;
85682;SDS011;76253;52.232;5.176;2024-03-17T05:01:16;12.25;;;6.13;;
85682;SDS011;76253;52.232;5.176;2024-03-17T05:03:42;10.50;;;6.28;;
85682;SDS011;76253;52.232;5.176;2024-03-17T05:06:07;13.32;;;6.60;;
85682;SDS011;76253;52.232;5.176;2024-03-17T05:08:33;14.03;;;6.50;;
85682;SDS011;76253;52.232;5.176;2024-03-17T05:11:03;10.48;;;5.85;;
85682;SDS011;76253;52.232;5.176;2024-03-17T05:13:30;8.77;;;5.90;;
85682;SDS011;76253;52.232;5.176;2024-03-17T05:16:02;12.88;;;5.85;;
85682;SDS011;76253;52.232;5.176;2024-03-17T05:18:30;12.32;;;6.35;;
85682;SDS011;76253;52.232;5.176;2024-03-17T05:21:01;12.32;;;5.82;;
85682;SDS011;76253;52.232;5.176;2024-03-17T05:23:28;15.18;;;6.68;;
85682;SDS011;76253;52.232;5.176;2024-03-17T05:25:55;10.48;;;5.45;;
85682;SDS011;76253;52.232;5.176;2024-03-17T05:28:21;10.63;;;5.28;;
85682;SDS011;76253;52.232;5.176;2024-03-17T05:30:47;9.18;;;5.43;;
85682;SDS011;76253;52.232;5.176;2024-03-17T05:33:15;10.30;;;5.88;;
85682;SDS011;76253;52.232;5.176;2024-03-17T05:35:51;10.27;;;5.97;;
85682;SDS011;76253;52.232;5.176;2024-03-17T05:38:25;13.20;;;6.07;;
85682;SDS011;76253;52.232;5.176;2024-03-17T05:40:54;12.23;;;6.00;;
85682;SDS011;76253;52.232;5.176;2024-03-17T05:43:20;12.68;;;5.65;;
85682;SDS011;76253;52.232;5.176;2024-03-17T05:45:46;14.40;;;5.85;;
85682;SDS011;76253;52.232;5.176;2024-03-17T05:48:14;9.57;;;5.97;;
85682;SDS011;76253;52.232;5.176;2024-03-17T05:50:39;10.95;;;5.97;;
85682;SDS011;76253;52.232;5.176;2024-03-17T05:53:04;11.70;;;5.20;;
85682;SDS011;76253;52.232;5.176;2024-03-17T05:55:30;13.40;;;6.72;;
85682;SDS011;76253;52.232;5.176;2024-03-17T05:57:57;12.63;;;6.43;;
85682;SDS011;76253;52.232;5.176;2024-03-17T06:00:22;12.82;;;6.80;;
85682;SDS011;76253;52.232;5.176;2024-03-17T06:02:47;11.60;;;6.00;;
85682;SDS011;76253;52.232;5.176;2024-03-17T06:05:13;10.57;;;6.70;;
85682;SDS011;76253;52.232;5.176;2024-03-17T06:07:42;13.80;;;5.80;;
85682;SDS011;76253;52.232;5.176;2024-03-17T06:10:15;11.63;;;6.40;;
85682;SDS011;76253;52.232;5.176;2024-03-17T06:12:40;9.98;;;5.30;;
85682;SDS011;76253;52.232;5.176;2024-03-17T06:15:06;9.73;;;5.40;;
85682;SDS011;76253;52.232;5.176;2024-03-17T06:17:32;9.25;;;5.53;;
85682;SDS011;76253;52.232;5.176;2024-03-17T06:19:57;9.02;;;5.38;;
85682;SDS011;76253;52.232;5.176;2024-03-17T06:22:23;10.73;;;5.45;;
85682;SDS011;76253;52.232;5.176;2024-03-17T06:24:49;11.05;;;5.20;;
85682;SDS011;76253;52.232;5.176;2024-03-17T06:27:15;10.23;;;5.07;;
85682;SDS011;76253;52.232;5.176;2024-03-17T06:29:41;8.57;;;5.10;;
85682;SDS011;76253;52.232;5.176;2024-03-17T06:32:10;11.80;;;5.55;;
85682;SDS011;76253;52.232;5.176;2024-03-17T06:34:37;9.23;;;5.20;;
85682;SDS011;76253;52.232;5.176;2024-03-17T06:37:03;11.68;;;5.50;;
85682;SDS011;76253;52.232;5.176;2024-03-17T06:39:29;9.48;;;5.50;;
85682;SDS011;76253;52.232;5.176;2024-03-17T06:41:55;6.38;;;4.38;;
85682;SDS011;76253;52.232;5.176;2024-03-17T06:44:21;10.63;;;5.18;;
85682;SDS011;76253;52.232;5.176;2024-03-17T06:46:52;10.95;;;5.13;;
85682;SDS011;76253;52.232;5.176;2024-03-17T06:49:17;8.40;;;4.87;;
85682;SDS011;76253;52.232;5.176;2024-03-17T06:51:43;9.38;;;5.93;;
85682;SDS011;76253;52.232;5.176;2024-03-17T06:54:09;8.50;;;5.15;;
85682;SDS011;76253;52.232;5.176;2024-03-17T06:56:35;10.32;;;5.47;;
85682;SDS011;76253;52.232;5.176;2024-03-17T06:59:02;9.23;;;5.93;;
85682;SDS011;76253;52.232;5.176;2024-03-17T07:03:54;9.02;;;5.43;;
85682;SDS011;76253;52.232;5.176;2024-03-17T07:06:20;9.43;;;5.32;;
85682;SDS011;76253;52.232;5.176;2024-03-17T07:08:47;13.45;;;5.82;;
85682;SDS011;76253;52.232;5.176;2024-03-17T07:11:12;9.48;;;5.25;;
85682;SDS011;76253;52.232;5.176;2024-03-17T07:13:38;11.65;;;5.65;;
85682;SDS011;76253;52.232;5.176;2024-03-17T07:16:06;11.38;;;5.50;;
85682;SDS011;76253;52.232;5.176;2024-03-17T07:18:31;10.13;;;6.40;;
85682;SDS011;76253;52.232;5.176;2024-03-17T07:23:23;9.05;;;5.20;;
85682;SDS011;76253;52.232;5.176;2024-03-17T07:25:54;9.98;;;6.05;;
85682;SDS011;76253;52.232;5.176;2024-03-17T07:28:21;9.45;;;5.53;;
85682;SDS011;76253;52.232;5.176;2024-03-17T07:30:50;10.25;;;5.85;;
85682;SDS011;76253;52.232;5.176;2024-03-17T07:33:17;8.77;;;5.78;;
85682;SDS011;76253;52.232;5.176;2024-03-17T07:35:51;9.02;;;6.15;;
85682;SDS011;76253;52.232;5.176;2024-03-17T07:38:17;9.20;;;5.13;;
85682;SDS011;76253;52.232;5.176;2024-03-17T07:40:45;11.50;;;6.57;;
85682;SDS011;76253;52.232;5.176;2024-03-17T07:43:19;9.85;;;5.72;;
85682;SDS011;76253;52.232;5.176;2024-03-17T07:45:45;10.87;;;6.30;;
85682;SDS011;76253;52.232;5.176;2024-03-17T07:48:11;11.80;;;6.00;;
85682;SDS011;76253;52.232;5.176;2024-03-17T07:50:36;8.93;;;5.87;;
85682;SDS011;76253;52.232;5.176;2024-03-17T07:53:01;10.15;;;6.03;;
85682;SDS011;76253;52.232;5.176;2024-03-17T07:55:29;9.48;;;5.55;;
85682;SDS011;76253;52.232;5.176;2024-03-17T07:57:56;9.85;;;6.78;;
85682;SDS011;76253;52.232;5.176;2024-03-17T08:00:21;11.75;;;6.85;;
85682;SDS011;76253;52.232;5.176;2024-03-17T08:05:12;10.82;;;5.93;;
85682;SDS011;76253;52.232;5.176;2024-03-17T08:10:03;10.40;;;5.97;;
85682;SDS011;76253;52.232;5.176;2024-03-17T08:14:56;9.15;;;5.30;;
85682;SDS011;76253;52.232;5.176;2024-03-17T08:19:46;10.33;;;5.63;;
85682;SDS011;76253;52.232;5.176;2024-03-17T08:22:12;9.80;;;5.75;;
85682;SDS011;76253;52.232;5.176;2024-03-17T08:27:03;10.67;;;6.10;;
85682;SDS011;76253;52.232;5.176;2024-03-17T08:29:29;8.20;;;5.45;;
85682;SDS011;76253;52.232;5.176;2024-03-17T08:34:21;9.00;;;5.75;;
85682;SDS011;76253;52.232;5.176;2024-03-17T08:39:11;10.10;;;6.30;;
85682;SDS011;76253;52.232;5.176;2024-03-17T08:44:05;9.02;;;5.80;;
85682;SDS011;76253;52.232;5.176;2024-03-17T08:48:57;11.00;;;5.45;;
85682;SDS011;76253;52.232;5.176;2024-03-17T08:53:47;11.43;;;6.50;;
85682;SDS011;76253;52.232;5.176;2024-03-17T08:56:15;11.57;;;6.20;;
85682;SDS011;76253;52.232;5.176;2024-03-17T08:58:40;9.98;;;5.97;;
85682;SDS011;76253;52.232;5.176;2024-03-17T09:01:06;11.73;;;6.43;;
85682;SDS011;76253;52.232;5.176;2024-03-17T09:03:33;9.77;;;6.28;;
85682;SDS011;76253;52.232;5.176;2024-03-17T09:05:59;9.18;;;6.25;;
85682;SDS011;76253;52.232;5.176;2024-03-17T09:08:24;10.80;;;6.40;;
85682;SDS011;76253;52.232;5.176;2024-03-17T09:10:51;10.18;;;5.80;;
85682;SDS011;76253;52.232;5.176;2024-03-17T09:13:19;11.15;;;8.10;;
85682;SDS011;76253;52.232;5.176;2024-03-17T09:15:58;8.57;;;6.45;;
85682;SDS011;76253;52.232;5.176;2024-03-17T09:18:27;9.90;;;5.47;;
85682;SDS011;76253;52.232;5.176;2024-03-17T09:23:22;11.18;;;6.82;;
85682;SDS011;76253;52.232;5.176;2024-03-17T09:25:58;8.65;;;6.00;;
85682;SDS011;76253;52.232;5.176;2024-03-17T09:28:25;10.00;;;7.05;;
85682;SDS011;76253;52.232;5.176;2024-03-17T09:30:52;9.75;;;6.70;;
85682;SDS011;76253;52.232;5.176;2024-03-17T09:33:19;9.73;;;5.97;;
85682;SDS011;76253;52.232;5.176;2024-03-17T09:35:52;8.93;;;6.68;;
85682;SDS011;76253;52.232;5.176;2024-03-17T09:38:21;8.88;;;5.70;;
85682;SDS011;76253;52.232;5.176;2024-03-17T09:40:47;12.20;;;6.78;;
85682;SDS011;76253;52.232;5.176;2024-03-17T09:43:16;13.40;;;7.28;;
85682;SDS011;76253;52.232;5.176;2024-03-17T09:45:41;9.85;;;6.22;;
85682;SDS011;76253;52.232;5.176;2024-03-17T09:48:06;8.45;;;6.22;;
85682;SDS011;76253;52.232;5.176;2024-03-17T09:50:34;10.88;;;6.20;;
85682;SDS011;76253;52.232;5.176;2024-03-17T09:53:00;9.20;;;6.65;;
85682;SDS011;76253;52.232;5.176;2024-03-17T09:55:29;9.48;;;6.32;;
85682;SDS011;76253;52.232;5.176;2024-03-17T09:57:55;10.18;;;6.20;;
85682;SDS011;76253;52.232;5.176;2024-03-17T10:00:20;8.83;;;5.80;;
85682;SDS011;76253;52.232;5.176;2024-03-17T10:05:21;11.35;;;6.13;;
85682;SDS011;76253;52.232;5.176;2024-03-17T10:07:49;10.57;;;6.28;;
85682;SDS011;76253;52.232;5.176;2024-03-17T10:10:15;10.55;;;6.40;;
85682;SDS011;76253;52.232;5.176;2024-03-17T10:12:42;11.15;;;6.20;;
85682;SDS011;76253;52.232;5.176;2024-03-17T10:15:10;8.90;;;6.00;;
85682;SDS011;76253;52.232;5.176;2024-03-17T10:17:37;11.18;;;5.85;;
85682;SDS011;76253;52.232;5.176;2024-03-17T10:25:33;8.82;;;5.68;;
85682;SDS011;76253;52.232;5.176;2024-03-17T10:28:00;11.63;;;6.47;;
85682;SDS011;76253;52.232;5.176;2024-03-17T10:30:26;11.57;;;6.07;;
85682;SDS011;76253;52.232;5.176;2024-03-17T10:38:05;11.30;;;5.57;;
85682;SDS011;76253;52.232;5.176;2024-03-17T10:40:31;10.27;;;6.15;;
85682;SDS011;76253;52.232;5.176;2024-03-17T10:42:59;10.35;;;6.03;;
85682;SDS011;76253;52.232;5.176;2024-03-17T10:45:25;10.23;;;6.10;;
85682;SDS011;76253;52.232;5.176;2024-03-17T10:47:52;7.47;;;5.53;;
85682;SDS011;76253;52.232;5.176;2024-03-17T10:50:22;8.73;;;5.47;;
85682;SDS011;76253;52.232;5.176;2024-03-17T10:52:51;8.27;;;5.55;;
85682;SDS011;76253;52.232;5.176;2024-03-17T10:55:21;7.78;;;6.00;;
85682;SDS011;76253;52.232;5.176;2024-03-17T10:57:51;9.07;;;5.57;;
85682;SDS011;76253;52.232;5.176;2024-03-17T11:00:18;7.78;;;4.65;;
85682;SDS011;76253;52.232;5.176;2024-03-17T11:02:47;8.02;;;5.47;;
85682;SDS011;76253;52.232;5.176;2024-03-17T11:05:24;9.05;;;5.25;;
85682;SDS011;76253;52.232;5.176;2024-03-17T11:07:54;9.05;;;5.53;;
85682;SDS011;76253;52.232;5.176;2024-03-17T11:10:26;8.88;;;5.60;;
85682;SDS011;76253;52.232;5.176;2024-03-17T11:12:54;7.35;;;4.80;;
85682;SDS011;76253;52.232;5.176;2024-03-17T11:20:33;7.15;;;5.00;;
85682;SDS011;76253;52.232;5.176;2024-03-17T11:22:59;7.65;;;5.35;;
85682;SDS011;76253;52.232;5.176;2024-03-17T11:27:54;6.80;;;4.88;;
85682;SDS011;76253;52.232;5.176;2024-03-17T11:38:53;7.93;;;4.60;;
85682;SDS011;76253;52.232;5.176;2024-03-17T11:44:25;7.20;;;4.38;;
85682;SDS011;76253;52.232;5.176;2024-03-17T11:46:58;6.13;;;4.10;;
85682;SDS011;76253;52.232;5.176;2024-03-17T11:52:02;10.20;;;4.97;;
85682;SDS011;76253;52.232;5.176;2024-03-17T11:54:29;7.95;;;5.32;;
85682;SDS011;76253;52.232;5.176;2024-03-17T11:57:00;5.82;;;4.47;;
85682;SDS011;76253;52.232;5.176;2024-03-17T11:59:27;6.75;;;4.45;;
85682;SDS011;76253;52.232;5.176;2024-03-17T12:01:53;10.75;;;5.35;;
85682;SDS011;76253;52.232;5.176;2024-03-17T12:04:19;7.97;;;4.90;;
85682;SDS011;76253;52.232;5.176;2024-03-17T12:06:46;7.72;;;5.07;;
85682;SDS011;76253;52.232;5.176;2024-03-17T12:12:03;7.85;;;4.82;;
85682;SDS011;76253;52.232;5.176;2024-03-17T12:14:38;9.88;;;5.10;;
85682;SDS011;76253;52.232;5.176;2024-03-17T12:17:04;7.43;;;5.13;;
85682;SDS011;76253;52.232;5.176;2024-03-17T12:19:33;8.70;;;5.93;;
85682;SDS011;76253;52.232;5.176;2024-03-17T12:21:59;9.23;;;5.43;;
85682;SDS011;76253;52.232;5.176;2024-03-17T12:24:27;9.30;;;5.45;;
85682;SDS011;76253;52.232;5.176;2024-03-17T12:26:54;9.35;;;5.55;;
85682;SDS011;76253;52.232;5.176;2024-03-17T12:31:54;8.68;;;5.90;;
85682;SDS011;76253;52.232;5.176;2024-03-17T12:34:22;8.75;;;4.90;;
85682;SDS011;76253;52.232;5.176;2024-03-17T12:36:51;8.85;;;5.90;;
85682;SDS011;76253;52.232;5.176;2024-03-17T12:39:21;12.93;;;6.10;;
85682;SDS011;76253;52.232;5.176;2024-03-17T12:42:04;7.93;;;5.47;;
85682;SDS011;76253;52.232;5.176;2024-03-17T12:44:37;9.27;;;6.05;;
85682;SDS011;76253;52.232;5.176;2024-03-17T12:47:06;10.80;;;6.88;;
85682;SDS011;76253;52.232;5.176;2024-03-17T12:49:33;8.85;;;6.13;;
85682;SDS011;76253;52.232;5.176;2024-03-17T12:52:00;9.20;;;6.60;;
85682;SDS011;76253;52.232;5.176;2024-03-17T12:54:27;8.30;;;6.13;;
85682;SDS011;76253;52.232;5.176;2024-03-17T12:57:04;9.40;;;6.53;;
85682;SDS011;76253;52.232;5.176;2024-03-17T12:59:52;10.57;;;6.57;;
85682;SDS011;76253;52.232;5.176;2024-03-17T13:02:43;11.70;;;6.70;;
85682;SDS011;76253;52.232;5.176;2024-03-17T13:05:16;7.63;;;6.00;;
85682;SDS011;76253;52.232;5.176;2024-03-17T13:07:45;11.70;;;5.97;;
85682;SDS011;76253;52.232;5.176;2024-03-17T13:10:20;9.63;;;6.03;;
85682;SDS011;76253;52.232;5.176;2024-03-17T13:12:46;9.55;;;5.55;;
85682;SDS011;76253;52.232;5.176;2024-03-17T13:15:13;8.95;;;6.28;;
85682;SDS011;76253;52.232;5.176;2024-03-17T13:17:41;8.38;;;5.32;;
85682;SDS011;76253;52.232;5.176;2024-03-17T13:20:13;9.43;;;6.30;;
85682;SDS011;76253;52.232;5.176;2024-03-17T13:22:43;9.10;;;5.97;;
85682;SDS011;76253;52.232;5.176;2024-03-17T13:25:16;10.95;;;5.90;;
85682;SDS011;76253;52.232;5.176;2024-03-17T13:27:43;16.30;;;8.50;;
85682;SDS011;76253;52.232;5.176;2024-03-17T13:30:10;10.68;;;6.70;;
85682;SDS011;76253;52.232;5.176;2024-03-17T13:32:40;12.70;;;6.25;;
85682;SDS011;76253;52.232;5.176;2024-03-17T13:35:16;9.32;;;5.82;;
85682;SDS011;76253;52.232;5.176;2024-03-17T13:37:46;9.68;;;6.10;;
85682;SDS011;76253;52.232;5.176;2024-03-17T13:40:13;11.85;;;6.32;;
85682;SDS011;76253;52.232;5.176;2024-03-17T13:42:43;10.27;;;5.97;;
85682;SDS011;76253;52.232;5.176;2024-03-17T13:45:12;9.43;;;5.18;;
85682;SDS011;76253;52.232;5.176;2024-03-17T13:47:40;9.48;;;6.35;;
85682;SDS011;76253;52.232;5.176;2024-03-17T13:50:08;10.20;;;5.88;;
85682;SDS011;76253;52.232;5.176;2024-03-17T13:52:40;9.18;;;5.88;;
85682;SDS011;76253;52.232;5.176;2024-03-17T13:55:20;10.10;;;5.65;;
85682;SDS011;76253;52.232;5.176;2024-03-17T13:57:48;12.73;;;5.82;;
85682;SDS011;76253;52.232;5.176;2024-03-17T14:00:22;6.88;;;4.88;;
85682;SDS011;76253;52.232;5.176;2024-03-17T14:02:49;7.43;;;5.68;;
85682;SDS011;76253;52.232;5.176;2024-03-17T14:05:17;9.60;;;6.45;;
85682;SDS011;76253;52.232;5.176;2024-03-17T14:07:44;6.93;;;5.05;;
85682;SDS011;76253;52.232;5.176;2024-03-17T14:10:12;8.43;;;5.60;;
85682;SDS011;76253;52.232;5.176;2024-03-17T14:12:39;9.65;;;5.75;;
85682;SDS011;76253;52.232;5.176;2024-03-17T14:15:05;7.97;;;5.60;;
85682;SDS011;76253;52.232;5.176;2024-03-17T14:17:32;14.05;;;5.88;;
85682;SDS011;76253;52.232;5.176;2024-03-17T14:19:58;8.63;;;5.78;;
85682;SDS011;76253;52.232;5.176;2024-03-17T14:22:24;9.93;;;6.28;;
85682;SDS011;76253;52.232;5.176;2024-03-17T14:24:49;9.10;;;5.07;;
85682;SDS011;76253;52.232;5.176;2024-03-17T14:27:15;6.75;;;5.10;;
85682;SDS011;76253;52.232;5.176;2024-03-17T14:29:41;8.07;;;4.90;;
85682;SDS011;76253;52.232;5.176;2024-03-17T14:32:07;7.50;;;5.45;;
85682;SDS011;76253;52.232;5.176;2024-03-17T14:34:33;7.85;;;5.10;;
85682;SDS011;76253;52.232;5.176;2024-03-17T14:37:01;8.75;;;5.50;;
85682;SDS011;76253;52.232;5.176;2024-03-17T14:39:27;6.80;;;5.32;;
85682;SDS011;76253;52.232;5.176;2024-03-17T14:41:54;10.15;;;5.93;;
85682;SDS011;76253;52.232;5.176;2024-03-17T14:44:19;8.13;;;5.63;;
85682;SDS011;76253;52.232;5.176;2024-03-17T14:46:45;7.47;;;6.13;;
85682;SDS011;76253;52.232;5.176;2024-03-17T14:49:10;9.80;;;5.67;;
85682;SDS011;76253;52.232;5.176;2024-03-17T14:51:35;11.50;;;5.35;;
85682;SDS011;76253;52.232;5.176;2024-03-17T14:54:01;9.67;;;5.20;;
85682;SDS011;76253;52.232;5.176;2024-03-17T14:56:26;8.25;;;5.13;;
85682;SDS011;76253;52.232;5.176;2024-03-17T14:58:51;10.45;;;5.32;;
85682;SDS011;76253;52.232;5.176;2024-03-17T15:01:17;8.15;;;4.95;;
85682;SDS011;76253;52.232;5.176;2024-03-17T15:03:42;8.38;;;5.78;;
85682;SDS011;76253;52.232;5.176;2024-03-17T15:06:11;9.60;;;5.32;;
85682;SDS011;76253;52.232;5.176;2024-03-17T15:08:38;7.47;;;5.32;;
85682;SDS011;76253;52.232;5.176;2024-03-17T15:11:03;9.23;;;5.20;;
85682;SDS011;76253;52.232;5.176;2024-03-17T15:13:29;11.80;;;5.30;;
85682;SDS011;76253;52.232;5.176;2024-03-17T15:15:54;8.98;;;5.28;;
85682;SDS011;76253;52.232;5.176;2024-03-17T15:18:22;10.02;;;6.03;;
85682;SDS011;76253;52.232;5.176;2024-03-17T15:20:51;8.95;;;4.95;;
85682;SDS011;76253;52.232;5.176;2024-03-17T15:23:18;9.80;;;5.07;;
85682;SDS011;76253;52.232;5.176;2024-03-17T15:25:43;6.85;;;5.30;;
85682;SDS011;76253;52.232;5.176;2024-03-17T15:28:09;8.40;;;5.90;;
85682;SDS011;76253;52.232;5.176;2024-03-17T15:30:37;9.25;;;6.13;;
85682;SDS011;76253;52.232;5.176;2024-03-17T15:33:02;9.63;;;5.40;;
85682;SDS011;76253;52.232;5.176;2024-03-17T15:35:27;8.70;;;5.80;;
85682;SDS011;76253;52.232;5.176;2024-03-17T15:37:56;10.80;;;5.38;;
85682;SDS011;76253;52.232;5.176;2024-03-17T15:40:21;8.10;;;4.80;;
85682;SDS011;76253;52.232;5.176;2024-03-17T15:42:47;8.38;;;5.35;;
85682;SDS011;76253;52.232;5.176;2024-03-17T15:45:16;8.98;;;5.45;;
85682;SDS011;76253;52.232;5.176;2024-03-17T15:47:47;7.13;;;4.72;;
85682;SDS011;76253;52.232;5.176;2024-03-17T15:50:13;7.70;;;5.18;;
85682;SDS011;76253;52.232;5.176;2024-03-17T15:52:39;9.73;;;5.82;;
85682;SDS011;76253;52.232;5.176;2024-03-17T15:55:07;9.43;;;5.72;;
85682;SDS011;76253;52.232;5.176;2024-03-17T15:57:33;7.97;;;5.07;;
85682;SDS011;76253;52.232;5.176;2024-03-17T15:59:59;9.45;;;5.75;;